sensor_id;sensor_type;location;lat;lon;timestamp;P1;durP1;ratioP1;P2;durP2;ratioP2
35795;SDS011;21916;52.428;13.302;2022-12-05T00:00:20;157.50;;;53.63;;
35795;SDS011;21916;52.428;13.302;2022-12-05T00:02:46;154.55;;;54.35;;
35795;SDS011;21916;52.428;13.302;2022-12-05T00:05:14;165.80;;;54.42;;
35795;SDS011;21916;52.428;13.302;2022-12-05T00:07:40;163.57;;;56.13;;
35795;SDS011;21916;52.428;13.302;2022-12-05T00:10:06;158.30;;;53.88;;
35795;SDS011;21916;52.428;13.302;2022-12-05T00:12:33;160.52;;;57.45;;
35795;SDS011;21916;52.428;13.302;2022-12-05T00:14:59;160.48;;;57.42;;
35795;SDS011;21916;52.428;13.302;2022-12-05T00:17:25;157.93;;;54.95;;
35795;SDS011;21916;52.428;13.302;2022-12-05T00:19:51;153.70;;;59.25;;
35795;SDS011;21916;52.428;13.302;2022-12-05T00:22:17;169.90;;;59.08;;
35795;SDS011;21916;52.428;13.302;2022-12-05T00:24:43;152.02;;;55.22;;
35795;SDS011;21916;52.428;13.302;2022-12-05T00:27:09;154.85;;;55.35;;
35795;SDS011;21916;52.428;13.302;2022-12-05T00:29:35;157.95;;;57.50;;
35795;SDS011;21916;52.428;13.302;2022-12-05T00:32:01;157.00;;;54.92;;
35795;SDS011;21916;52.428;13.302;2022-12-05T00:34:27;147.82;;;52.53;;
35795;SDS011;21916;52.428;13.302;2022-12-05T00:36:53;178.02;;;56.70;;
35795;SDS011;21916;52.428;13.302;2022-12-05T00:39:19;163.00;;;58.78;;
35795;SDS011;21916;52.428;13.302;2022-12-05T00:41:45;150.10;;;56.65;;
35795;SDS011;21916;52.428;13.302;2022-12-05T00:44:11;159.73;;;55.95;;
35795;SDS011;21916;52.428;13.302;2022-12-05T00:46:38;147.43;;;56.28;;
35795;SDS011;21916;52.428;13.302;2022-12-05T00:49:05;155.10;;;55.67;;
35795;SDS011;21916;52.428;13.302;2022-12-05T00:51:33;151.35;;;55.38;;
35795;SDS011;21916;52.428;13.302;2022-12-05T00:54:02;152.23;;;57.38;;
35795;SDS011;21916;52.428;13.302;2022-12-05T00:56:32;157.95;;;56.38;;
35795;SDS011;21916;52.428;13.302;2022-12-05T00:58:59;156.00;;;55.38;;
35795;SDS011;21916;52.428;13.302;2022-12-05T01:01:28;145.57;;;52.20;;
35795;SDS011;21916;52.428;13.302;2022-12-05T01:04:05;144.93;;;54.13;;
35795;SDS011;21916;52.428;13.302;2022-12-05T01:06:36;159.75;;;57.50;;
35795;SDS011;21916;52.428;13.302;2022-12-05T01:09:02;150.23;;;56.38;;
35795;SDS011;21916;52.428;13.302;2022-12-05T01:11:29;158.32;;;56.80;;
35795;SDS011;21916;52.428;13.302;2022-12-05T01:13:55;174.85;;;57.95;;
35795;SDS011;21916;52.428;13.302;2022-12-05T01:16:26;151.13;;;54.42;;
35795;SDS011;21916;52.428;13.302;2022-12-05T01:18:54;154.88;;;56.95;;
35795;SDS011;21916;52.428;13.302;2022-12-05T01:21:21;155.77;;;53.58;;
35795;SDS011;21916;52.428;13.302;2022-12-05T01:23:47;150.15;;;53.45;;
35795;SDS011;21916;52.428;13.302;2022-12-05T01:26:14;141.73;;;54.45;;
35795;SDS011;21916;52.428;13.302;2022-12-05T01:28:43;152.25;;;55.53;;
35795;SDS011;21916;52.428;13.302;2022-12-05T01:31:14;155.55;;;54.30;;
35795;SDS011;21916;52.428;13.302;2022-12-05T01:33:49;158.55;;;55.90;;
35795;SDS011;21916;52.428;13.302;2022-12-05T01:36:16;151.32;;;55.75;;
35795;SDS011;21916;52.428;13.302;2022-12-05T01:38:43;154.75;;;55.47;;
35795;SDS011;21916;52.428;13.302;2022-12-05T01:41:19;138.85;;;54.30;;
35795;SDS011;21916;52.428;13.302;2022-12-05T01:44:01;140.57;;;54.22;;
35795;SDS011;21916;52.428;13.302;2022-12-05T01:46:37;159.40;;;59.30;;
35795;SDS011;21916;52.428;13.302;2022-12-05T01:49:18;149.82;;;55.47;;
35795;SDS011;21916;52.428;13.302;2022-12-05T01:51:52;146.93;;;55.25;;
35795;SDS011;21916;52.428;13.302;2022-12-05T01:54:39;147.25;;;55.00;;
35795;SDS011;21916;52.428;13.302;2022-12-05T01:57:07;142.15;;;53.97;;
35795;SDS011;21916;52.428;13.302;2022-12-05T01:59:37;142.55;;;55.20;;
35795;SDS011;21916;52.428;13.302;2022-12-05T02:02:06;153.70;;;54.17;;
35795;SDS011;21916;52.428;13.302;2022-12-05T02:04:34;154.15;;;54.72;;
35795;SDS011;21916;52.428;13.302;2022-12-05T02:07:08;153.27;;;57.28;;
35795;SDS011;21916;52.428;13.302;2022-12-05T02:09:34;149.85;;;54.63;;
35795;SDS011;21916;52.428;13.302;2022-12-05T02:12:05;140.65;;;52.65;;
35795;SDS011;21916;52.428;13.302;2022-12-05T02:26:30;137.60;;;52.20;;
35795;SDS011;21916;52.428;13.302;2022-12-05T02:35:04;155.07;;;55.35;;
35795;SDS011;21916;52.428;13.302;2022-12-05T02:38:35;144.45;;;49.22;;
35795;SDS011;21916;52.428;13.302;2022-12-05T02:43:43;142.43;;;51.13;;
35795;SDS011;21916;52.428;13.302;2022-12-05T02:46:16;150.68;;;54.60;;
35795;SDS011;21916;52.428;13.302;2022-12-05T02:48:46;144.90;;;51.10;;
35795;SDS011;21916;52.428;13.302;2022-12-05T02:51:16;131.57;;;51.05;;
35795;SDS011;21916;52.428;13.302;2022-12-05T02:53:45;144.85;;;53.70;;
35795;SDS011;21916;52.428;13.302;2022-12-05T02:56:14;137.50;;;50.95;;
35795;SDS011;21916;52.428;13.302;2022-12-05T03:01:31;133.88;;;53.15;;
35795;SDS011;21916;52.428;13.302;2022-12-05T03:03:59;127.38;;;49.60;;
35795;SDS011;21916;52.428;13.302;2022-12-05T03:06:34;121.32;;;47.38;;
35795;SDS011;21916;52.428;13.302;2022-12-05T03:09:06;113.30;;;46.10;;
35795;SDS011;21916;52.428;13.302;2022-12-05T03:12:40;133.68;;;46.75;;
35795;SDS011;21916;52.428;13.302;2022-12-05T03:14:41;113.53;;;44.05;;
35795;SDS011;21916;52.428;13.302;2022-12-05T03:17:24;112.68;;;44.08;;
35795;SDS011;21916;52.428;13.302;2022-12-05T03:23:23;110.47;;;46.28;;
35795;SDS011;21916;52.428;13.302;2022-12-05T03:26:20;105.07;;;43.25;;
35795;SDS011;21916;52.428;13.302;2022-12-05T03:32:09;105.68;;;40.80;;
35795;SDS011;21916;52.428;13.302;2022-12-05T03:37:19;109.43;;;42.30;;
35795;SDS011;21916;52.428;13.302;2022-12-05T03:40:46;108.90;;;42.17;;
35795;SDS011;21916;52.428;13.302;2022-12-05T03:43:06;104.97;;;42.03;;
35795;SDS011;21916;52.428;13.302;2022-12-05T03:45:49;112.97;;;43.90;;
35795;SDS011;21916;52.428;13.302;2022-12-05T03:48:34;100.32;;;45.88;;
35795;SDS011;21916;52.428;13.302;2022-12-05T03:51:10;103.28;;;45.47;;
35795;SDS011;21916;52.428;13.302;2022-12-05T03:53:41;101.65;;;42.47;;
35795;SDS011;21916;52.428;13.302;2022-12-05T03:56:18;100.88;;;43.10;;
35795;SDS011;21916;52.428;13.302;2022-12-05T03:58:51;105.20;;;43.30;;
35795;SDS011;21916;52.428;13.302;2022-12-05T04:01:24;107.80;;;42.15;;
35795;SDS011;21916;52.428;13.302;2022-12-05T04:03:54;111.55;;;44.55;;
35795;SDS011;21916;52.428;13.302;2022-12-05T04:06:33;107.75;;;43.45;;
35795;SDS011;21916;52.428;13.302;2022-12-05T04:09:14;108.63;;;42.75;;
35795;SDS011;21916;52.428;13.302;2022-12-05T04:11:44;115.40;;;43.90;;
35795;SDS011;21916;52.428;13.302;2022-12-05T04:14:24;99.72;;;41.40;;
35795;SDS011;21916;52.428;13.302;2022-12-05T04:17:00;97.90;;;42.40;;
35795;SDS011;21916;52.428;13.302;2022-12-05T04:22:37;106.10;;;41.67;;
35795;SDS011;21916;52.428;13.302;2022-12-05T04:25:04;105.40;;;42.45;;
35795;SDS011;21916;52.428;13.302;2022-12-05T04:27:55;96.63;;;41.20;;
35795;SDS011;21916;52.428;13.302;2022-12-05T04:30:34;96.53;;;39.78;;
35795;SDS011;21916;52.428;13.302;2022-12-05T04:33:16;104.55;;;39.97;;
35795;SDS011;21916;52.428;13.302;2022-12-05T04:35:53;98.47;;;41.90;;
35795;SDS011;21916;52.428;13.302;2022-12-05T04:38:31;96.45;;;40.90;;
35795;SDS011;21916;52.428;13.302;2022-12-05T04:41:03;93.47;;;39.20;;
35795;SDS011;21916;52.428;13.302;2022-12-05T04:43:32;85.95;;;36.45;;
35795;SDS011;21916;52.428;13.302;2022-12-05T04:46:02;89.85;;;38.13;;
35795;SDS011;21916;52.428;13.302;2022-12-05T04:48:32;96.82;;;39.38;;
35795;SDS011;21916;52.428;13.302;2022-12-05T04:51:01;87.60;;;37.33;;
35795;SDS011;21916;52.428;13.302;2022-12-05T04:53:31;92.53;;;38.67;;
35795;SDS011;21916;52.428;13.302;2022-12-05T04:55:58;86.47;;;38.58;;
35795;SDS011;21916;52.428;13.302;2022-12-05T04:58:26;86.22;;;37.40;;
35795;SDS011;21916;52.428;13.302;2022-12-05T05:01:17;83.90;;;37.10;;
35795;SDS011;21916;52.428;13.302;2022-12-05T05:03:49;82.75;;;37.72;;
35795;SDS011;21916;52.428;13.302;2022-12-05T05:06:20;81.15;;;34.80;;
35795;SDS011;21916;52.428;13.302;2022-12-05T05:08:53;81.88;;;35.40;;
35795;SDS011;21916;52.428;13.302;2022-12-05T05:11:25;85.55;;;35.00;;
35795;SDS011;21916;52.428;13.302;2022-12-05T05:13:53;75.70;;;33.72;;
35795;SDS011;21916;52.428;13.302;2022-12-05T05:16:26;80.00;;;36.03;;
35795;SDS011;21916;52.428;13.302;2022-12-05T05:18:54;79.95;;;35.63;;
35795;SDS011;21916;52.428;13.302;2022-12-05T05:21:30;74.40;;;34.35;;
35795;SDS011;21916;52.428;13.302;2022-12-05T05:23:58;71.50;;;33.78;;
35795;SDS011;21916;52.428;13.302;2022-12-05T05:26:25;83.25;;;37.60;;
35795;SDS011;21916;52.428;13.302;2022-12-05T05:28:53;73.53;;;32.63;;
35795;SDS011;21916;52.428;13.302;2022-12-05T05:31:19;72.47;;;33.78;;
35795;SDS011;21916;52.428;13.302;2022-12-05T05:33:49;70.55;;;32.75;;
35795;SDS011;21916;52.428;13.302;2022-12-05T05:36:18;73.05;;;33.50;;
35795;SDS011;21916;52.428;13.302;2022-12-05T05:38:46;70.43;;;32.83;;
35795;SDS011;21916;52.428;13.302;2022-12-05T05:41:14;70.15;;;33.22;;
35795;SDS011;21916;52.428;13.302;2022-12-05T05:43:43;68.95;;;31.85;;
35795;SDS011;21916;52.428;13.302;2022-12-05T05:46:09;63.55;;;29.45;;
35795;SDS011;21916;52.428;13.302;2022-12-05T05:48:36;68.00;;;30.33;;
35795;SDS011;21916;52.428;13.302;2022-12-05T05:51:02;64.25;;;32.55;;
35795;SDS011;21916;52.428;13.302;2022-12-05T05:53:30;61.67;;;29.98;;
35795;SDS011;21916;52.428;13.302;2022-12-05T05:55:56;68.43;;;32.30;;
35795;SDS011;21916;52.428;13.302;2022-12-05T05:58:26;58.88;;;29.77;;
35795;SDS011;21916;52.428;13.302;2022-12-05T06:00:51;60.97;;;28.48;;
35795;SDS011;21916;52.428;13.302;2022-12-05T06:03:17;59.85;;;28.88;;
35795;SDS011;21916;52.428;13.302;2022-12-05T06:05:43;62.40;;;29.05;;
35795;SDS011;21916;52.428;13.302;2022-12-05T06:08:09;61.42;;;28.45;;
35795;SDS011;21916;52.428;13.302;2022-12-05T06:10:37;54.25;;;28.13;;
35795;SDS011;21916;52.428;13.302;2022-12-05T06:13:03;57.80;;;28.20;;
35795;SDS011;21916;52.428;13.302;2022-12-05T06:15:29;55.63;;;27.15;;
35795;SDS011;21916;52.428;13.302;2022-12-05T06:17:55;57.28;;;28.38;;
35795;SDS011;21916;52.428;13.302;2022-12-05T06:20:21;47.80;;;26.30;;
35795;SDS011;21916;52.428;13.302;2022-12-05T06:22:47;56.25;;;27.88;;
35795;SDS011;21916;52.428;13.302;2022-12-05T06:25:12;54.17;;;27.67;;
35795;SDS011;21916;52.428;13.302;2022-12-05T06:27:38;48.42;;;25.00;;
35795;SDS011;21916;52.428;13.302;2022-12-05T06:30:04;49.42;;;25.48;;
35795;SDS011;21916;52.428;13.302;2022-12-05T06:32:31;53.97;;;25.58;;
35795;SDS011;21916;52.428;13.302;2022-12-05T06:34:57;49.42;;;24.05;;
35795;SDS011;21916;52.428;13.302;2022-12-05T06:37:22;53.00;;;26.33;;
35795;SDS011;21916;52.428;13.302;2022-12-05T06:39:49;50.22;;;24.23;;
35795;SDS011;21916;52.428;13.302;2022-12-05T06:42:16;56.42;;;23.58;;
35795;SDS011;21916;52.428;13.302;2022-12-05T06:44:42;44.47;;;23.00;;
35795;SDS011;21916;52.428;13.302;2022-12-05T06:47:08;45.63;;;23.42;;
35795;SDS011;21916;52.428;13.302;2022-12-05T06:49:34;44.17;;;21.60;;
35795;SDS011;21916;52.428;13.302;2022-12-05T06:52:00;46.35;;;23.48;;
35795;SDS011;21916;52.428;13.302;2022-12-05T06:54:26;47.88;;;23.48;;
35795;SDS011;21916;52.428;13.302;2022-12-05T06:56:53;44.22;;;22.05;;
35795;SDS011;21916;52.428;13.302;2022-12-05T06:59:19;44.67;;;23.50;;
35795;SDS011;21916;52.428;13.302;2022-12-05T07:01:45;39.53;;;22.55;;
35795;SDS011;21916;52.428;13.302;2022-12-05T07:04:12;44.83;;;22.52;;
35795;SDS011;21916;52.428;13.302;2022-12-05T07:06:40;42.83;;;23.17;;
35795;SDS011;21916;52.428;13.302;2022-12-05T07:09:07;44.10;;;23.10;;
35795;SDS011;21916;52.428;13.302;2022-12-05T07:11:33;44.85;;;23.13;;
35795;SDS011;21916;52.428;13.302;2022-12-05T07:14:00;44.38;;;22.90;;
35795;SDS011;21916;52.428;13.302;2022-12-05T07:16:27;41.38;;;21.55;;
35795;SDS011;21916;52.428;13.302;2022-12-05T07:18:53;39.75;;;22.42;;
35795;SDS011;21916;52.428;13.302;2022-12-05T07:21:20;41.10;;;22.02;;
35795;SDS011;21916;52.428;13.302;2022-12-05T07:23:46;43.22;;;21.27;;
35795;SDS011;21916;52.428;13.302;2022-12-05T07:26:16;44.13;;;22.67;;
35795;SDS011;21916;52.428;13.302;2022-12-05T07:28:47;41.63;;;21.30;;
35795;SDS011;21916;52.428;13.302;2022-12-05T07:31:20;40.97;;;22.05;;
35795;SDS011;21916;52.428;13.302;2022-12-05T07:33:50;35.97;;;20.23;;
35795;SDS011;21916;52.428;13.302;2022-12-05T07:36:17;46.60;;;21.67;;
35795;SDS011;21916;52.428;13.302;2022-12-05T07:38:46;40.20;;;20.70;;
35795;SDS011;21916;52.428;13.302;2022-12-05T07:41:21;42.47;;;23.00;;
35795;SDS011;21916;52.428;13.302;2022-12-05T07:43:50;41.63;;;21.88;;
35795;SDS011;21916;52.428;13.302;2022-12-05T07:46:16;36.65;;;20.02;;
35795;SDS011;21916;52.428;13.302;2022-12-05T07:48:43;41.58;;;21.25;;
35795;SDS011;21916;52.428;13.302;2022-12-05T07:51:09;44.88;;;22.40;;
35795;SDS011;21916;52.428;13.302;2022-12-05T07:53:35;40.08;;;21.58;;
35795;SDS011;21916;52.428;13.302;2022-12-05T07:56:04;37.72;;;19.73;;
35795;SDS011;21916;52.428;13.302;2022-12-05T07:58:33;44.05;;;21.92;;
35795;SDS011;21916;52.428;13.302;2022-12-05T08:01:13;38.47;;;20.60;;
35795;SDS011;21916;52.428;13.302;2022-12-05T08:03:44;37.58;;;19.27;;
35795;SDS011;21916;52.428;13.302;2022-12-05T08:06:12;42.85;;;22.95;;
35795;SDS011;21916;52.428;13.302;2022-12-05T08:08:39;36.25;;;20.27;;
35795;SDS011;21916;52.428;13.302;2022-12-05T08:11:10;40.63;;;20.92;;
35795;SDS011;21916;52.428;13.302;2022-12-05T08:13:38;38.63;;;21.35;;
35795;SDS011;21916;52.428;13.302;2022-12-05T08:16:06;39.50;;;21.02;;
35795;SDS011;21916;52.428;13.302;2022-12-05T08:18:34;39.78;;;23.30;;
35795;SDS011;21916;52.428;13.302;2022-12-05T08:21:03;37.78;;;20.83;;
35795;SDS011;21916;52.428;13.302;2022-12-05T08:23:31;40.97;;;21.63;;
35795;SDS011;21916;52.428;13.302;2022-12-05T08:26:01;39.10;;;20.10;;
35795;SDS011;21916;52.428;13.302;2022-12-05T08:28:32;39.15;;;19.88;;
35795;SDS011;21916;52.428;13.302;2022-12-05T08:31:09;40.13;;;21.15;;
35795;SDS011;21916;52.428;13.302;2022-12-05T08:33:39;42.65;;;22.50;;
35795;SDS011;21916;52.428;13.302;2022-12-05T08:36:07;42.22;;;21.45;;
35795;SDS011;21916;52.428;13.302;2022-12-05T08:38:35;41.67;;;22.58;;
35795;SDS011;21916;52.428;13.302;2022-12-05T08:41:09;41.72;;;22.05;;
35795;SDS011;21916;52.428;13.302;2022-12-05T08:43:37;37.55;;;22.17;;
35795;SDS011;21916;52.428;13.302;2022-12-05T08:46:04;39.08;;;20.85;;
35795;SDS011;21916;52.428;13.302;2022-12-05T08:48:30;40.92;;;21.40;;
35795;SDS011;21916;52.428;13.302;2022-12-05T08:50:57;37.80;;;20.50;;
35795;SDS011;21916;52.428;13.302;2022-12-05T08:53:24;36.42;;;20.88;;
35795;SDS011;21916;52.428;13.302;2022-12-05T08:55:50;40.22;;;21.75;;
35795;SDS011;21916;52.428;13.302;2022-12-05T08:58:16;36.15;;;21.27;;
35795;SDS011;21916;52.428;13.302;2022-12-05T09:00:42;40.58;;;20.48;;
35795;SDS011;21916;52.428;13.302;2022-12-05T09:03:09;44.92;;;22.67;;
35795;SDS011;21916;52.428;13.302;2022-12-05T09:05:36;40.47;;;21.58;;
35795;SDS011;21916;52.428;13.302;2022-12-05T09:08:02;36.45;;;21.05;;
35795;SDS011;21916;52.428;13.302;2022-12-05T09:10:28;45.08;;;22.58;;
35795;SDS011;21916;52.428;13.302;2022-12-05T09:12:55;39.28;;;21.90;;
35795;SDS011;21916;52.428;13.302;2022-12-05T09:15:21;46.13;;;23.63;;
35795;SDS011;21916;52.428;13.302;2022-12-05T09:17:47;41.33;;;21.73;;
35795;SDS011;21916;52.428;13.302;2022-12-05T09:20:14;39.70;;;20.85;;
35795;SDS011;21916;52.428;13.302;2022-12-05T09:22:40;44.05;;;21.65;;
35795;SDS011;21916;52.428;13.302;2022-12-05T09:25:06;40.55;;;23.48;;
35795;SDS011;21916;52.428;13.302;2022-12-05T09:27:33;35.63;;;20.23;;
35795;SDS011;21916;52.428;13.302;2022-12-05T09:29:59;39.95;;;20.85;;
35795;SDS011;21916;52.428;13.302;2022-12-05T09:32:25;43.42;;;22.27;;
35795;SDS011;21916;52.428;13.302;2022-12-05T09:34:51;42.22;;;20.77;;
35795;SDS011;21916;52.428;13.302;2022-12-05T09:37:18;42.25;;;20.67;;
35795;SDS011;21916;52.428;13.302;2022-12-05T09:39:44;39.35;;;20.92;;
35795;SDS011;21916;52.428;13.302;2022-12-05T09:53:05;39.20;;;21.80;;
35795;SDS011;21916;52.428;13.302;2022-12-05T10:01:17;41.65;;;22.65;;
35795;SDS011;21916;52.428;13.302;2022-12-05T10:11:52;36.70;;;20.67;;
35795;SDS011;21916;52.428;13.302;2022-12-05T10:14:37;42.35;;;22.40;;
35795;SDS011;21916;52.428;13.302;2022-12-05T10:17:19;35.42;;;21.23;;
35795;SDS011;21916;52.428;13.302;2022-12-05T10:19:55;41.65;;;22.65;;
35795;SDS011;21916;52.428;13.302;2022-12-05T10:22:27;42.33;;;22.67;;
35795;SDS011;21916;52.428;13.302;2022-12-05T10:25:04;41.53;;;22.92;;
35795;SDS011;21916;52.428;13.302;2022-12-05T10:27:35;38.60;;;20.58;;
35795;SDS011;21916;52.428;13.302;2022-12-05T10:35:17;45.08;;;24.05;;
35795;SDS011;21916;52.428;13.302;2022-12-05T10:37:46;45.72;;;24.02;;
35795;SDS011;21916;52.428;13.302;2022-12-05T10:40:15;44.22;;;24.52;;
35795;SDS011;21916;52.428;13.302;2022-12-05T10:42:42;47.17;;;24.38;;
35795;SDS011;21916;52.428;13.302;2022-12-05T10:45:16;46.35;;;24.83;;
35795;SDS011;21916;52.428;13.302;2022-12-05T10:47:47;46.55;;;23.45;;
35795;SDS011;21916;52.428;13.302;2022-12-05T10:52:55;53.70;;;25.55;;
35795;SDS011;21916;52.428;13.302;2022-12-05T10:55:25;45.28;;;23.85;;
35795;SDS011;21916;52.428;13.302;2022-12-05T11:00:49;49.55;;;24.73;;
35795;SDS011;21916;52.428;13.302;2022-12-05T11:03:27;45.90;;;25.35;;
35795;SDS011;21916;52.428;13.302;2022-12-05T11:05:59;44.83;;;25.00;;
35795;SDS011;21916;52.428;13.302;2022-12-05T11:08:31;49.40;;;26.20;;
35795;SDS011;21916;52.428;13.302;2022-12-05T11:11:16;52.20;;;25.10;;
35795;SDS011;21916;52.428;13.302;2022-12-05T11:16:28;57.17;;;27.30;;
35795;SDS011;21916;52.428;13.302;2022-12-05T11:19:34;56.40;;;27.40;;
35795;SDS011;21916;52.428;13.302;2022-12-05T11:21:52;50.72;;;25.98;;
35795;SDS011;21916;52.428;13.302;2022-12-05T11:24:24;58.40;;;27.23;;
35795;SDS011;21916;52.428;13.302;2022-12-05T11:26:54;45.92;;;25.02;;
35795;SDS011;21916;52.428;13.302;2022-12-05T11:29:35;47.80;;;25.55;;
35795;SDS011;21916;52.428;13.302;2022-12-05T11:32:03;52.00;;;25.95;;
35795;SDS011;21916;52.428;13.302;2022-12-05T11:34:41;48.00;;;25.55;;
35795;SDS011;21916;52.428;13.302;2022-12-05T11:37:28;47.28;;;23.65;;
35795;SDS011;21916;52.428;13.302;2022-12-05T11:39:59;46.40;;;24.83;;
35795;SDS011;21916;52.428;13.302;2022-12-05T11:42:29;46.88;;;26.52;;
35795;SDS011;21916;52.428;13.302;2022-12-05T11:45:12;50.38;;;25.45;;
35795;SDS011;21916;52.428;13.302;2022-12-05T11:47:59;48.17;;;24.67;;
35795;SDS011;21916;52.428;13.302;2022-12-05T11:51:05;44.05;;;25.38;;
35795;SDS011;21916;52.428;13.302;2022-12-05T11:56:55;49.55;;;24.15;;
35795;SDS011;21916;52.428;13.302;2022-12-05T12:05:37;41.80;;;23.88;;
35795;SDS011;21916;52.428;13.302;2022-12-05T12:08:27;44.97;;;23.60;;
35795;SDS011;21916;52.428;13.302;2022-12-05T12:11:10;48.38;;;25.10;;
35795;SDS011;21916;52.428;13.302;2022-12-05T12:40:42;58.75;;;30.27;;
35795;SDS011;21916;52.428;13.302;2022-12-05T12:43:32;58.60;;;28.55;;
35795;SDS011;21916;52.428;13.302;2022-12-05T12:46:40;62.67;;;29.70;;
35795;SDS011;21916;52.428;13.302;2022-12-05T12:52:09;53.75;;;26.25;;
35795;SDS011;21916;52.428;13.302;2022-12-05T12:55:02;54.03;;;25.92;;
35795;SDS011;21916;52.428;13.302;2022-12-05T12:57:47;59.22;;;27.25;;
35795;SDS011;21916;52.428;13.302;2022-12-05T13:03:46;62.97;;;29.15;;
35795;SDS011;21916;52.428;13.302;2022-12-05T13:09:30;62.22;;;29.25;;
35795;SDS011;21916;52.428;13.302;2022-12-05T13:12:10;60.42;;;29.65;;
35795;SDS011;21916;52.428;13.302;2022-12-05T13:14:42;63.42;;;30.83;;
35795;SDS011;21916;52.428;13.302;2022-12-05T13:17:27;60.03;;;29.42;;
35795;SDS011;21916;52.428;13.302;2022-12-05T13:19:55;62.17;;;30.52;;
35795;SDS011;21916;52.428;13.302;2022-12-05T13:22:22;67.15;;;30.30;;
35795;SDS011;21916;52.428;13.302;2022-12-05T13:24:50;66.53;;;30.58;;
35795;SDS011;21916;52.428;13.302;2022-12-05T13:27:18;63.22;;;31.15;;
35795;SDS011;21916;52.428;13.302;2022-12-05T13:30:14;61.47;;;28.30;;
35795;SDS011;21916;52.428;13.302;2022-12-05T13:32:42;64.13;;;30.10;;
35795;SDS011;21916;52.428;13.302;2022-12-05T13:35:10;62.92;;;29.30;;
35795;SDS011;21916;52.428;13.302;2022-12-05T13:37:43;64.72;;;30.70;;
35795;SDS011;21916;52.428;13.302;2022-12-05T13:40:30;66.38;;;29.38;;
35795;SDS011;21916;52.428;13.302;2022-12-05T13:43:17;74.60;;;31.05;;
35795;SDS011;21916;52.428;13.302;2022-12-05T13:46:05;68.13;;;32.00;;
35795;SDS011;21916;52.428;13.302;2022-12-05T13:48:34;73.22;;;32.03;;
35795;SDS011;21916;52.428;13.302;2022-12-05T13:53:44;72.53;;;31.23;;
35795;SDS011;21916;52.428;13.302;2022-12-05T14:17:25;86.10;;;33.90;;
35795;SDS011;21916;52.428;13.302;2022-12-05T14:28:43;83.93;;;33.60;;
35795;SDS011;21916;52.428;13.302;2022-12-05T14:31:20;80.57;;;32.97;;
35795;SDS011;21916;52.428;13.302;2022-12-05T14:36:37;93.72;;;35.88;;
35795;SDS011;21916;52.428;13.302;2022-12-05T14:39:21;78.20;;;34.25;;
35795;SDS011;21916;52.428;13.302;2022-12-05T14:41:56;94.78;;;35.60;;
35795;SDS011;21916;52.428;13.302;2022-12-05T14:44:24;87.53;;;33.83;;
35795;SDS011;21916;52.428;13.302;2022-12-05T14:46:59;98.15;;;35.35;;
35795;SDS011;21916;52.428;13.302;2022-12-05T14:52:17;83.10;;;35.05;;
35795;SDS011;21916;52.428;13.302;2022-12-05T14:54:48;111.18;;;35.83;;
35795;SDS011;21916;52.428;13.302;2022-12-05T14:57:19;93.03;;;35.22;;
35795;SDS011;21916;52.428;13.302;2022-12-05T14:59:53;91.97;;;35.78;;
35795;SDS011;21916;52.428;13.302;2022-12-05T15:02:29;105.70;;;35.67;;
35795;SDS011;21916;52.428;13.302;2022-12-05T15:04:59;102.55;;;36.03;;
35795;SDS011;21916;52.428;13.302;2022-12-05T15:07:34;90.95;;;34.97;;
35795;SDS011;21916;52.428;13.302;2022-12-05T15:12:56;99.97;;;36.30;;
35795;SDS011;21916;52.428;13.302;2022-12-05T15:18:00;89.35;;;34.30;;
35795;SDS011;21916;52.428;13.302;2022-12-05T15:26:02;86.00;;;33.85;;
35795;SDS011;21916;52.428;13.302;2022-12-05T15:28:30;112.13;;;37.72;;
35795;SDS011;21916;52.428;13.302;2022-12-05T15:30:56;91.00;;;34.90;;
35795;SDS011;21916;52.428;13.302;2022-12-05T15:33:22;84.90;;;36.20;;
35795;SDS011;21916;52.428;13.302;2022-12-05T15:35:50;107.57;;;36.95;;
35795;SDS011;21916;52.428;13.302;2022-12-05T15:38:27;100.15;;;36.53;;
35795;SDS011;21916;52.428;13.302;2022-12-05T15:40:57;86.63;;;35.20;;
35795;SDS011;21916;52.428;13.302;2022-12-05T15:48:56;88.03;;;35.92;;
35795;SDS011;21916;52.428;13.302;2022-12-05T15:51:35;102.93;;;37.42;;
35795;SDS011;21916;52.428;13.302;2022-12-05T15:56:52;100.63;;;36.47;;
35795;SDS011;21916;52.428;13.302;2022-12-05T15:59:44;91.55;;;35.95;;
35795;SDS011;21916;52.428;13.302;2022-12-05T16:02:53;122.78;;;37.75;;
35795;SDS011;21916;52.428;13.302;2022-12-05T16:05:39;125.93;;;37.70;;
35795;SDS011;21916;52.428;13.302;2022-12-05T16:08:10;88.38;;;35.75;;
35795;SDS011;21916;52.428;13.302;2022-12-05T16:10:37;116.72;;;38.80;;
35795;SDS011;21916;52.428;13.302;2022-12-05T16:13:14;91.25;;;37.42;;
35795;SDS011;21916;52.428;13.302;2022-12-05T16:15:46;156.02;;;38.35;;
35795;SDS011;21916;52.428;13.302;2022-12-05T16:18:25;92.30;;;36.22;;
35795;SDS011;21916;52.428;13.302;2022-12-05T16:20:53;106.78;;;37.38;;
35795;SDS011;21916;52.428;13.302;2022-12-05T16:23:26;96.72;;;37.15;;
35795;SDS011;21916;52.428;13.302;2022-12-05T16:26:20;105.72;;;36.85;;
35795;SDS011;21916;52.428;13.302;2022-12-05T16:29:00;99.72;;;38.20;;
35795;SDS011;21916;52.428;13.302;2022-12-05T16:31:26;98.40;;;37.35;;
35795;SDS011;21916;52.428;13.302;2022-12-05T16:34:13;96.32;;;37.10;;
35795;SDS011;21916;52.428;13.302;2022-12-05T16:36:47;103.40;;;35.47;;
35795;SDS011;21916;52.428;13.302;2022-12-05T16:39:14;95.15;;;37.92;;
35795;SDS011;21916;52.428;13.302;2022-12-05T16:41:41;111.28;;;37.47;;
35795;SDS011;21916;52.428;13.302;2022-12-05T16:46:56;124.40;;;39.28;;
35795;SDS011;21916;52.428;13.302;2022-12-05T16:49:35;101.97;;;36.63;;
35795;SDS011;21916;52.428;13.302;2022-12-05T16:52:02;112.00;;;38.35;;
35795;SDS011;21916;52.428;13.302;2022-12-05T16:54:39;84.25;;;34.40;;
35795;SDS011;21916;52.428;13.302;2022-12-05T16:57:08;93.82;;;36.67;;
35795;SDS011;21916;52.428;13.302;2022-12-05T16:59:36;108.47;;;35.65;;
35795;SDS011;21916;52.428;13.302;2022-12-05T17:02:09;107.55;;;36.65;;
35795;SDS011;21916;52.428;13.302;2022-12-05T17:04:38;100.53;;;36.30;;
35795;SDS011;21916;52.428;13.302;2022-12-05T17:07:04;111.00;;;39.67;;
35795;SDS011;21916;52.428;13.302;2022-12-05T17:09:30;114.85;;;37.15;;
35795;SDS011;21916;52.428;13.302;2022-12-05T17:12:00;98.95;;;36.90;;
35795;SDS011;21916;52.428;13.302;2022-12-05T17:14:31;93.20;;;36.28;;
35795;SDS011;21916;52.428;13.302;2022-12-05T17:16:57;103.03;;;38.35;;
35795;SDS011;21916;52.428;13.302;2022-12-05T17:19:24;126.68;;;36.88;;
35795;SDS011;21916;52.428;13.302;2022-12-05T17:21:51;118.93;;;35.60;;
35795;SDS011;21916;52.428;13.302;2022-12-05T17:24:17;127.85;;;38.63;;
35795;SDS011;21916;52.428;13.302;2022-12-05T17:26:44;103.53;;;37.60;;
35795;SDS011;21916;52.428;13.302;2022-12-05T17:29:11;108.18;;;36.13;;